Time;durP1;ratioP1;P1;durP2;ratioP2;P2;SDS_P1;SDS_P2;PMS_P1;PMS_P2;Temp;Humidity;BMP_temperature;BMP_pressure;BME280_temperature;BME280_humidity;BME280_pressure;Samples;Min_cycle;Max_cycle;Signal;HPM_P1;HPM_P2
2023/06/21 00:02:15;;;;;;;;;;;;;;;24.01;54.11;95563.41;10301924;28;1918;-65
2023/06/21 00:07:15;;;;;;;;;;;;;;;24.07;54.49;95566.75;10309012;28;2292;-65
2023/06/21 00:12:15;;;;;;;;;;;;;;;24.09;54.66;95560.06;10299851;28;2001;-65
2023/06/21 00:17:15;;;;;;;;;;;;;;;24.13;54.86;95563.66;10297804;28;1915;-64
2023/06/21 00:22:21;;;;;;;;;;;;;;;24.14;55.22;95570.53;10301627;28;1912;-65
2023/06/21 00:27:21;;;;;;;;;;;;;;;24.16;55.61;95565.72;10294821;28;1967;-65
2023/06/21 00:32:22;;;;;;;;;;;;;;;24.18;55.14;95563.56;10300791;28;2301;-65
2023/06/21 00:37:22;;;;;;;;;;;;;;;24.19;55.23;95561.72;10296833;28;2045;-65
2023/06/21 00:42:23;;;;;;;;;;;;;;;24.20;55.01;95565.91;10312649;28;4488;-65
2023/06/21 00:47:23;;;;;;;;;;;;;;;24.15;54.96;95569.44;10300573;28;1949;-65
2023/06/21 00:52:23;;;;;;;;;;;;;;;24.16;55.24;95578.97;10301176;28;1910;-65
2023/06/21 00:57:24;;;;;;;;;;;;;;;24.17;54.98;95595.66;10291630;28;2016;-65
2023/06/21 01:02:24;;;;;;;;;;;;;;;24.16;54.88;95602.03;10300140;28;2462;-65
2023/06/21 01:07:29;;;;;;;;;;;;;;;24.12;55.05;95599.19;10302858;28;2148;-65
2023/06/21 01:12:48;;;;;;;;;;;;;;;24.12;55.02;95609.78;10287513;28;1989;-65
2023/06/21 01:17:51;;;;;;;;;;;;;;;24.07;54.60;95609.88;10298907;28;1927;-65
2023/06/21 01:22:51;;;;;;;;;;;;;;;24.07;54.33;95619.72;10280277;28;2001;-65
2023/06/21 01:27:52;;;;;;;;;;;;;;;24.06;54.26;95639.31;10290285;28;1938;-65
2023/06/21 01:32:53;;;;;;;;;;;;;;;24.05;54.53;95635.13;10299160;28;1977;-65
2023/06/21 01:37:53;;;;;;;;;;;;;;;24.07;54.41;95625.00;10283599;28;1912;-65
2023/06/21 01:42:53;;;;;;;;;;;;;;;24.06;54.32;95620.78;10289198;28;4523;-65
2023/06/21 01:47:54;;;;;;;;;;;;;;;24.04;54.00;95618.44;10291219;28;1940;-65
2023/06/21 01:52:54;;;;;;;;;;;;;;;24.02;53.80;95615.28;10286664;28;1985;-65
2023/06/21 01:57:56;;;;;;;;;;;;;;;24.01;54.20;95624.28;10278490;28;2007;-65
2023/06/21 02:02:56;;;;;;;;;;;;;;;24.01;54.20;95636.75;10294151;28;1874;-65
2023/06/21 02:07:56;;;;;;;;;;;;;;;23.97;54.49;95639.22;10275471;28;2026;-65
2023/06/21 02:12:57;;;;;;;;;;;;;;;23.99;54.18;95644.19;10299581;28;1989;-65
2023/06/21 02:17:57;;;;;;;;;;;;;;;23.93;54.59;95646.19;10303904;28;1925;-65
2023/06/21 02:22:57;;;;;;;;;;;;;;;23.88;54.49;95651.59;10308562;28;1913;-65
2023/06/21 02:27:58;;;;;;;;;;;;;;;23.88;54.39;95648.16;10298362;28;1899;-65
2023/06/21 02:32:58;;;;;;;;;;;;;;;23.83;54.70;95656.97;10293530;28;2038;-65
2023/06/21 02:37:58;;;;;;;;;;;;;;;23.81;54.79;95651.19;10297598;28;1906;-65
2023/06/21 02:42:59;;;;;;;;;;;;;;;23.82;54.74;95646.69;10292079;28;2000;-64
2023/06/21 02:47:59;;;;;;;;;;;;;;;23.83;54.56;95641.09;10297135;28;2021;-64
2023/06/21 02:52:59;;;;;;;;;;;;;;;23.81;54.96;95659.16;10317244;28;2373;-64
2023/06/21 02:58:00;;;;;;;;;;;;;;;23.82;54.96;95666.00;10302769;28;1992;-65
2023/06/21 03:03:00;;;;;;;;;;;;;;;23.80;54.61;95660.22;10307272;28;1936;-65
2023/06/21 03:08:03;;;;;;;;;;;;;;;23.71;55.03;95666.50;10300529;28;2060;-65
2023/06/21 03:13:03;;;;;;;;;;;;;;;23.67;55.02;95666.31;10302281;28;1997;-65
2023/06/21 03:18:03;;;;;;;;;;;;;;;23.60;55.36;95663.28;10304819;28;1972;-65
2023/06/21 03:23:04;;;;;;;;;;;;;;;23.59;55.45;95658.28;10300008;28;2076;-65
2023/06/21 03:28:04;;;;;;;;;;;;;;;23.63;55.10;95669.84;10306074;28;1999;-65
2023/06/21 03:33:05;;;;;;;;;;;;;;;23.65;55.43;95687.00;10301427;28;1949;-65
2023/06/21 03:38:07;;;;;;;;;;;;;;;23.62;55.28;95692.88;10298993;28;2025;-65
2023/06/21 03:43:07;;;;;;;;;;;;;;;23.58;55.75;95699.81;10302729;28;4528;-64
2023/06/21 03:48:07;;;;;;;;;;;;;;;23.62;55.48;95703.44;10293101;28;2270;-65
2023/06/21 03:53:08;;;;;;;;;;;;;;;23.54;56.01;95706.78;10279224;28;2457;-64
2023/06/21 03:58:08;;;;;;;;;;;;;;;23.57;55.81;95706.22;10300603;28;1901;-66
2023/06/21 04:03:09;;;;;;;;;;;;;;;23.54;55.78;95706.78;10293283;28;2144;-65
2023/06/21 04:08:09;;;;;;;;;;;;;;;23.50;56.10;95705.78;10300760;28;1981;-65
2023/06/21 04:13:10;;;;;;;;;;;;;;;23.45;56.02;95719.13;10291342;28;2351;-66
2023/06/21 04:18:10;;;;;;;;;;;;;;;23.45;56.30;95711.19;10293229;28;1985;-65
2023/06/21 04:23:10;;;;;;;;;;;;;;;23.51;55.84;95712.66;10304032;28;1878;-64
2023/06/21 04:28:10;;;;;;;;;;;;;;;23.46;56.15;95712.75;10301764;28;1985;-65
2023/06/21 04:33:11;;;;;;;;;;;;;;;23.49;55.92;95712.19;10301318;28;2136;-65
2023/06/21 04:38:11;;;;;;;;;;;;;;;23.46;55.83;95715.41;10297681;28;2071;-65
2023/06/21 04:43:11;;;;;;;;;;;;;;;23.41;56.02;95712.88;10306688;28;4629;-65
2023/06/21 04:48:11;;;;;;;;;;;;;;;23.44;56.00;95720.19;10289728;28;2360;-65
2023/06/21 04:53:12;;;;;;;;;;;;;;;23.46;55.80;95723.34;10298090;28;1995;-66
2023/06/21 04:58:12;;;;;;;;;;;;;;;23.48;55.88;95723.81;10301213;28;1904;-66
2023/06/21 05:03:13;;;;;;;;;;;;;;;23.53;56.15;95717.66;10298486;28;1988;-64
2023/06/21 05:08:13;;;;;;;;;;;;;;;23.55;56.01;95732.19;10305164;28;1905;-64
2023/06/21 05:13:13;;;;;;;;;;;;;;;23.62;56.33;95737.09;10300028;28;1937;-65
2023/06/21 05:18:14;;;;;;;;;;;;;;;23.68;56.65;95739.31;10295260;28;1965;-64
2023/06/21 05:23:14;;;;;;;;;;;;;;;23.68;56.95;95752.56;10292399;28;2162;-65
2023/06/21 05:28:14;;;;;;;;;;;;;;;23.71;56.54;95751.97;10278483;28;1984;-65
2023/06/21 05:33:14;;;;;;;;;;;;;;;23.71;56.56;95765.22;10293994;28;1978;-65
2023/06/21 05:38:15;;;;;;;;;;;;;;;23.68;56.85;95765.78;10299535;28;1957;-65
2023/06/21 05:43:15;;;;;;;;;;;;;;;23.65;56.44;95779.63;10285061;28;4361;-65
2023/06/21 05:48:15;;;;;;;;;;;;;;;23.63;56.34;95784.41;10297689;28;1907;-66
2023/06/21 05:53:15;;;;;;;;;;;;;;;23.59;56.05;95791.38;10303362;28;1938;-66
2023/06/21 05:58:19;;;;;;;;;;;;;;;23.59;55.90;95791.38;10291385;28;1904;-66
2023/06/21 06:03:19;;;;;;;;;;;;;;;23.63;55.56;95797.66;10292124;28;1918;-66
2023/06/21 06:08:20;;;;;;;;;;;;;;;23.72;55.34;95809.13;10284978;28;1877;-65
2023/06/21 06:13:21;;;;;;;;;;;;;;;23.79;55.29;95817.47;10293184;28;2044;-66
2023/06/21 06:18:21;;;;;;;;;;;;;;;23.86;55.21;95825.81;10291635;28;1885;-61
2023/06/21 06:23:21;;;;;;;;;;;;;;;23.92;55.10;95835.25;10296347;28;1919;-64
2023/06/21 06:28:21;;;;;;;;;;;;;;;23.95;55.17;95842.59;10294533;28;2046;-64
2023/06/21 06:33:22;;;;;;;;;;;;;;;24.01;54.92;95840.63;10303495;28;2034;-63
2023/06/21 06:38:22;;;;;;;;;;;;;;;24.03;54.58;95846.41;10307328;28;2289;-60
2023/06/21 06:43:22;;;;;;;;;;;;;;;24.07;54.56;95852.75;10297451;28;4653;-64
2023/06/21 06:48:23;;;;;;;;;;;;;;;24.12;54.17;95856.09;10281051;28;1917;-65
2023/06/21 06:53:23;;;;;;;;;;;;;;;24.15;54.38;95860.78;10286279;28;2004;-66
2023/06/21 06:58:23;;;;;;;;;;;;;;;24.19;54.17;95871.59;10291343;28;1881;-66
2023/06/21 07:03:24;;;;;;;;;;;;;;;24.22;54.06;95865.69;10293611;28;1897;-66
2023/06/21 07:08:24;;;;;;;;;;;;;;;24.26;54.06;95869.31;10296567;28;1962;-66
2023/06/21 07:13:24;;;;;;;;;;;;;;;24.29;53.88;95873.25;10298169;28;2005;-66
2023/06/21 07:18:24;;;;;;;;;;;;;;;24.32;54.00;95859.44;10296414;28;1986;-66
2023/06/21 07:23:27;;;;;;;;;;;;;;;24.33;53.83;95866.28;10304612;28;1889;-65
2023/06/21 07:28:27;;;;;;;;;;;;;;;24.35;53.82;95864.91;10296405;28;1996;-65
2023/06/21 07:33:27;;;;;;;;;;;;;;;24.37;53.99;95859.31;10300080;28;2349;-64
2023/06/21 07:38:28;;;;;;;;;;;;;;;24.40;53.55;95866.69;10297868;28;1858;-64
2023/06/21 07:43:28;;;;;;;;;;;;;;;24.42;53.45;95875.13;10295915;28;4413;-64
2023/06/21 07:48:28;;;;;;;;;;;;;;;24.43;53.73;95861.59;10295547;28;1901;-64
2023/06/21 07:53:28;;;;;;;;;;;;;;;24.45;53.42;95853.31;10294560;28;1973;-63
2023/06/21 07:58:29;;;;;;;;;;;;;;;24.45;53.56;95858.63;10289977;28;2167;-64
2023/06/21 08:03:29;;;;;;;;;;;;;;;24.47;53.83;95854.63;10292204;28;1994;-64
2023/06/21 08:08:29;;;;;;;;;;;;;;;24.48;53.61;95853.53;10291214;28;2036;-64
2023/06/21 08:13:30;;;;;;;;;;;;;;;24.50;53.67;95846.09;10292102;28;2219;-64
2023/06/21 08:18:30;;;;;;;;;;;;;;;24.51;53.65;95842.34;10291931;28;1985;-64
2023/06/21 08:23:30;;;;;;;;;;;;;;;24.54;53.45;95838.31;10296246;28;1886;-64
2023/06/21 08:28:31;;;;;;;;;;;;;;;24.56;53.62;95833.50;10303131;28;1862;-65
2023/06/21 08:33:31;;;;;;;;;;;;;;;24.56;53.43;95834.28;10292762;28;2314;-64
2023/06/21 08:38:31;;;;;;;;;;;;;;;24.59;53.38;95843.50;10288502;28;1839;-64
2023/06/21 08:43:32;;;;;;;;;;;;;;;24.59;53.33;95836.34;10295454;28;1986;-65
2023/06/21 08:48:32;;;;;;;;;;;;;;;24.61;53.19;95838.69;10294222;28;1843;-64
2023/06/21 08:53:36;;;;;;;;;;;;;;;24.63;53.42;95844.47;10294059;28;1918;-64
2023/06/21 08:58:39;;;;;;;;;;;;;;;24.64;53.50;95841.56;10294740;28;1850;-64
2023/06/21 09:03:43;;;;;;;;;;;;;;;24.66;53.39;95844.69;10309761;28;1925;-64
2023/06/21 09:08:44;;;;;;;;;;;;;;;24.66;53.21;95850.00;10295773;28;1863;-65
2023/06/21 09:13:44;;;;;;;;;;;;;;;24.68;53.44;95858.44;10279651;28;2003;-64
2023/06/21 09:18:44;;;;;;;;;;;;;;;24.69;53.27;95854.69;10291908;28;1855;-64
2023/06/21 09:23:44;;;;;;;;;;;;;;;24.71;53.21;95851.75;10311511;28;1895;-67
2023/06/21 09:28:45;;;;;;;;;;;;;;;24.73;53.11;95860.19;10294336;28;1867;-65
2023/06/21 09:33:47;;;;;;;;;;;;;;;24.74;53.37;95856.47;10291423;28;2125;-65
2023/06/21 09:38:47;;;;;;;;;;;;;;;24.75;53.50;95844.81;10279137;28;1992;-65
2023/06/21 09:43:48;;;;;;;;;;;;;;;24.77;53.57;95832.78;10298339;28;1827;-64
2023/06/21 09:48:48;;;;;;;;;;;;;;;24.78;53.49;95821.13;10313669;28;1889;-62
2023/06/21 09:53:50;;;;;;;;;;;;;;;24.80;53.34;95811.00;10288245;28;1944;-65
2023/06/21 09:58:52;;;;;;;;;;;;;;;24.81;53.54;95827.69;10282560;28;1876;-65
2023/06/21 10:03:52;;;;;;;;;;;;;;;24.83;53.72;95849.41;10295671;28;1863;-62
2023/06/21 10:08:52;;;;;;;;;;;;;;;24.85;53.76;95890.41;10296051;28;2028;-62
2023/06/21 10:13:53;;;;;;;;;;;;;;;24.85;53.70;95916.94;10281135;28;1995;-62
2023/06/21 10:18:53;;;;;;;;;;;;;;;24.87;53.26;95956.44;10299007;28;1888;-62
2023/06/21 10:23:54;;;;;;;;;;;;;;;24.87;53.13;95969.69;10289973;28;1976;-61
2023/06/21 10:28:56;;;;;;;;;;;;;;;24.88;53.16;95979.19;10282906;28;1979;-62
2023/06/21 10:33:56;;;;;;;;;;;;;;;24.89;53.11;95970.19;10294145;28;1946;-62
2023/06/21 10:38:57;;;;;;;;;;;;;;;24.90;53.13;95974.38;10293055;28;1890;-62
2023/06/21 10:43:57;;;;;;;;;;;;;;;24.88;53.52;95960.63;10291227;28;2042;-62
2023/06/21 10:48:58;;;;;;;;;;;;;;;24.91;53.04;95978.63;10295932;28;1893;-62
2023/06/21 10:53:58;;;;;;;;;;;;;;;24.92;53.17;96012.81;10293081;28;1889;-63
2023/06/21 10:58:58;;;;;;;;;;;;;;;24.92;53.09;96022.63;10308825;28;1622;-63
2023/06/21 11:03:58;;;;;;;;;;;;;;;24.92;53.07;96015.44;10306106;28;1462;-63
2023/06/21 11:09:10;;;;;;;;;;;;;;;24.93;52.82;96010.94;10306220;28;1961;-63
2023/06/21 11:14:10;;;;;;;;;;;;;;;24.94;52.85;96009.84;10300100;28;2066;-62
2023/06/21 11:19:11;;;;;;;;;;;;;;;24.94;52.95;96007.19;10307450;28;2359;-63
2023/06/21 11:24:11;;;;;;;;;;;;;;;24.96;52.99;95999.72;10294443;28;1889;-63
2023/06/21 11:29:12;;;;;;;;;;;;;;;24.95;52.86;96006.13;10298297;28;1898;-63
2023/06/21 11:34:26;;;;;;;;;;;;;;;24.96;52.72;96007.69;10303107;28;1939;-63
2023/06/21 11:39:26;;;;;;;;;;;;;;;24.97;52.77;95994.16;10295915;28;1846;-63
2023/06/21 11:44:27;;;;;;;;;;;;;;;24.97;52.77;95978.22;10302289;28;4512;-63
2023/06/21 11:49:32;;;;;;;;;;;;;;;24.98;52.74;96001.00;10297201;28;1994;-64
2023/06/21 11:54:33;;;;;;;;;;;;;;;25.00;52.87;96013.97;10301832;28;1847;-63
2023/06/21 11:59:34;;;;;;;;;;;;;;;24.99;52.82;96002.59;10298629;28;1898;-65
2023/06/21 12:04:34;;;;;;;;;;;;;;;25.01;52.67;95994.34;10299496;28;1828;-65
2023/06/21 12:09:34;;;;;;;;;;;;;;;25.01;52.76;95981.06;10287731;28;1947;-65
2023/06/21 12:14:35;;;;;;;;;;;;;;;25.02;52.76;95987.94;10301100;28;1840;-65
2023/06/21 12:19:35;;;;;;;;;;;;;;;25.03;52.61;95976.25;10311003;28;2523;-64
2023/06/21 12:24:35;;;;;;;;;;;;;;;25.02;52.88;95978.13;10296338;28;1859;-65
2023/06/21 12:29:35;;;;;;;;;;;;;;;25.03;52.76;95985.00;10317138;28;1906;-64
2023/06/21 12:34:38;;;;;;;;;;;;;;;25.03;52.68;95973.59;10301372;28;1915;-65
2023/06/21 12:39:38;;;;;;;;;;;;;;;25.04;52.67;95972.50;10303956;28;1951;-65
2023/06/21 12:44:38;;;;;;;;;;;;;;;25.04;52.63;95968.00;10308249;28;4534;-65
2023/06/21 12:49:39;;;;;;;;;;;;;;;25.05;52.54;95963.47;10298795;28;1988;-65
2023/06/21 12:54:51;;;;;;;;;;;;;;;25.05;52.44;95968.78;10296930;28;2050;-65
2023/06/21 12:59:51;;;;;;;;;;;;;;;25.06;52.46;95974.88;10297386;28;1903;-66
2023/06/21 13:04:54;;;;;;;;;;;;;;;25.07;52.37;95960.53;10299957;28;2102;-65
2023/06/21 13:09:55;;;;;;;;;;;;;;;25.07;52.36;95958.66;10280281;28;1879;-65
2023/06/21 13:14:55;;;;;;;;;;;;;;;25.08;52.46;95954.91;10295274;28;2370;-65
2023/06/21 13:19:55;;;;;;;;;;;;;;;25.09;52.31;95963.66;10296747;28;1987;-65
2023/06/21 13:24:55;;;;;;;;;;;;;;;25.09;52.20;95955.72;10300199;28;1826;-65
2023/06/21 13:29:57;;;;;;;;;;;;;;;25.10;52.36;95944.78;10298385;28;1957;-65
2023/06/21 13:34:58;;;;;;;;;;;;;;;25.11;52.30;95929.66;10306267;28;1891;-66
2023/06/21 13:39:58;;;;;;;;;;;;;;;25.11;52.30;95929.66;10294555;28;2111;-65
2023/06/21 13:44:58;;;;;;;;;;;;;;;25.12;52.18;95920.66;10297859;28;4392;-65
2023/06/21 13:50:00;;;;;;;;;;;;;;;25.12;52.00;95913.47;10299907;28;2168;-65
2023/06/21 13:55:00;;;;;;;;;;;;;;;25.13;52.07;95928.31;10276113;28;2030;-65
2023/06/21 14:00:01;;;;;;;;;;;;;;;25.13;52.05;95928.31;10299641;28;1930;-65
2023/06/21 14:05:01;;;;;;;;;;;;;;;25.14;52.20;95921.13;10280994;28;2102;-65
2023/06/21 14:10:02;;;;;;;;;;;;;;;25.14;52.28;95908.66;10296318;28;2253;-64
2023/06/21 14:15:02;;;;;;;;;;;;;;;25.15;52.14;95912.88;10292693;28;1867;-65
2023/06/21 14:20:06;;;;;;;;;;;;;;;25.14;52.01;95895.41;10300085;28;1832;-65
2023/06/21 14:25:08;;;;;;;;;;;;;;;25.16;52.15;95882.63;10294460;28;1834;-65
2023/06/21 14:30:08;;;;;;;;;;;;;;;25.17;51.92;95892.13;10286656;28;1976;-65
2023/06/21 14:35:09;;;;;;;;;;;;;;;25.17;51.71;95880.72;10296477;28;1965;-66
2023/06/21 14:40:09;;;;;;;;;;;;;;;25.18;52.14;95888.41;10292024;28;1879;-65
2023/06/21 14:45:10;;;;;;;;;;;;;;;25.20;52.05;95896.06;10294706;28;4610;-65
2023/06/21 14:50:11;;;;;;;;;;;;;;;25.20;51.88;95904.81;10305424;28;2080;-64
2023/06/21 14:55:11;;;;;;;;;;;;;;;25.20;51.92;95923.38;10300279;28;2086;-64
2023/06/21 15:00:11;;;;;;;;;;;;;;;25.21;51.78;95948.81;10304199;28;1890;-65
2023/06/21 15:05:12;;;;;;;;;;;;;;;25.21;51.88;95958.63;10306455;28;2251;-65
2023/06/21 15:10:13;;;;;;;;;;;;;;;25.21;51.75;95956.78;10286816;28;1907;-64
2023/06/21 15:15:15;;;;;;;;;;;;;;;25.21;51.75;95951.47;10297607;28;1970;-65
2023/06/21 15:20:16;;;;;;;;;;;;;;;25.21;51.87;95967.38;10296817;28;1854;-61
2023/06/21 15:25:16;;;;;;;;;;;;;;;25.23;51.97;95983.78;10308743;28;1796;-64
2023/06/21 15:30:16;;;;;;;;;;;;;;;25.22;51.75;95984.88;10300213;28;1899;-65
2023/06/21 15:35:16;;;;;;;;;;;;;;;25.24;51.91;95969.47;10304041;28;1859;-65
2023/06/21 15:40:17;;;;;;;;;;;;;;;25.25;51.77;95963.06;10298842;28;1921;-66
2023/06/21 15:45:17;;;;;;;;;;;;;;;25.27;51.66;95965.41;10306889;28;4808;-67
2023/06/21 15:50:17;;;;;;;;;;;;;;;25.28;51.80;95959.81;10306187;28;1976;-66
2023/06/21 15:55:17;;;;;;;;;;;;;;;25.32;51.77;95976.72;10305455;28;1946;-66
2023/06/21 16:00:18;;;;;;;;;;;;;;;25.30;51.92;95984.19;10305947;28;2416;-66
2023/06/21 16:05:18;;;;;;;;;;;;;;;25.29;51.93;95995.88;10303275;28;1878;-66
2023/06/21 16:10:18;;;;;;;;;;;;;;;25.31;52.10;96014.94;10299143;28;2003;-67
2023/06/21 16:15:19;;;;;;;;;;;;;;;25.31;51.80;95999.00;10298767;28;1875;-66
2023/06/21 16:20:19;;;;;;;;;;;;;;;25.31;51.76;95983.09;10302072;28;2122;-66
2023/06/21 16:25:19;;;;;;;;;;;;;;;25.32;51.71;95978.56;10302898;28;1851;-66
2023/06/21 16:30:20;;;;;;;;;;;;;;;25.31;52.01;95964.50;10299173;28;1977;-65
2023/06/21 16:35:20;;;;;;;;;;;;;;;25.32;51.84;95967.97;10296107;28;2079;-65
2023/06/21 16:40:20;;;;;;;;;;;;;;;25.33;51.54;95967.66;10301674;28;1997;-65
2023/06/21 16:45:20;;;;;;;;;;;;;;;25.34;51.57;95973.75;10298504;28;1969;-65
2023/06/21 16:50:22;;;;;;;;;;;;;;;25.34;51.72;95981.72;10306424;28;1883;-65
2023/06/21 16:55:22;;;;;;;;;;;;;;;25.33;51.81;95991.53;10299838;28;1946;-65
2023/06/21 17:00:22;;;;;;;;;;;;;;;25.36;51.55;95987.50;10300192;28;1998;-67
2023/06/21 17:05:23;;;;;;;;;;;;;;;25.38;51.73;95999.41;10308574;28;1922;-64
2023/06/21 17:10:23;;;;;;;;;;;;;;;25.44;51.98;95994.78;10312146;28;1933;-64
2023/06/21 17:15:23;;;;;;;;;;;;;;;25.41;51.99;95982.91;10296508;28;1891;-64
2023/06/21 17:20:23;;;;;;;;;;;;;;;25.41;51.98;95982.91;10301662;28;1863;-64
2023/06/21 17:25:24;;;;;;;;;;;;;;;25.40;52.12;95973.34;10301753;28;2152;-64
2023/06/21 17:30:24;;;;;;;;;;;;;;;25.41;52.34;95960.91;10300147;28;2031;-65
2023/06/21 17:35:24;;;;;;;;;;;;;;;25.43;52.10;95969.34;10298636;28;1954;-64
2023/06/21 17:40:25;;;;;;;;;;;;;;;25.42;52.17;95970.41;10303676;28;2042;-65
2023/06/21 17:45:25;;;;;;;;;;;;;;;25.43;52.33;95985.28;10298155;28;4475;-65
2023/06/21 17:50:25;;;;;;;;;;;;;;;25.42;52.17;95979.16;10300927;28;1915;-65
2023/06/21 17:55:27;;;;;;;;;;;;;;;25.43;52.09;95966.69;10298351;28;1974;-64
2023/06/21 18:00:28;;;;;;;;;;;;;;;25.43;52.19;95969.34;10300648;28;1901;-64
2023/06/21 18:05:28;;;;;;;;;;;;;;;25.44;52.09;95965.59;10286919;28;1902;-64
2023/06/21 18:10:28;;;;;;;;;;;;;;;25.43;52.11;95940.91;10298592;28;1976;-64
2023/06/21 18:15:28;;;;;;;;;;;;;;;25.43;52.18;95940.91;10299915;28;1927;-66
2023/06/21 18:20:29;;;;;;;;;;;;;;;25.44;52.01;95917.81;10307324;28;1811;-66
2023/06/21 18:25:29;;;;;;;;;;;;;;;25.44;52.08;95904.56;10312358;28;1973;-66
2023/06/21 18:30:30;;;;;;;;;;;;;;;25.45;52.24;95882.25;10305073;28;1922;-65
2023/06/21 18:35:31;;;;;;;;;;;;;;;25.45;52.04;95896.28;10306257;28;1886;-66
2023/06/21 18:40:31;;;;;;;;;;;;;;;25.46;52.09;95897.06;10301132;28;2019;-66
2023/06/21 18:45:31;;;;;;;;;;;;;;;25.46;52.01;95905.03;10308272;28;4942;-66
2023/06/21 18:50:32;;;;;;;;;;;;;;;25.45;51.82;95909.56;10287675;28;2324;-66
2023/06/21 18:55:33;;;;;;;;;;;;;;;25.46;51.76;95916.44;10313104;28;1831;-66
2023/06/21 19:00:33;;;;;;;;;;;;;;;25.46;51.69;95927.06;10316727;28;1838;-66
2023/06/21 19:05:33;;;;;;;;;;;;;;;25.46;51.84;95943.00;10303003;28;2018;-66
2023/06/21 19:10:33;;;;;;;;;;;;;;;25.46;51.89;95950.16;10299100;28;1919;-66
2023/06/21 19:15:33;;;;;;;;;;;;;;;25.47;51.89;95972.97;10309018;28;1901;-66
2023/06/21 19:20:34;;;;;;;;;;;;;;;25.47;51.54;95983.59;10309320;28;1867;-66
2023/06/21 19:25:34;;;;;;;;;;;;;;;25.42;51.10;95987.13;10308211;28;1980;-67
2023/06/21 19:30:37;;;;;;;;;;;;;;;25.38;50.72;95988.78;10304580;28;1964;-67
2023/06/21 19:35:37;;;;;;;;;;;;;;;25.35;50.38;95999.22;10311106;28;1874;-67
2023/06/21 19:40:43;;;;;;;;;;;;;;;25.35;50.44;96007.94;10302098;28;4479;-62
2023/06/21 19:45:43;;;;;;;;;;;;;;;25.31;50.60;96020.22;10302625;28;2706;-62
2023/06/21 19:50:43;;;;;;;;;;;;;;;25.30;51.17;96017.88;10300298;28;1883;-67
2023/06/21 19:55:43;;;;;;;;;;;;;;;25.29;51.43;96026.91;10296189;28;1835;-67
2023/06/21 20:00:44;;;;;;;;;;;;;;;25.28;51.32;96035.97;10305619;28;1902;-67
2023/06/21 20:05:48;;;;;;;;;;;;;;;25.26;51.40;96041.59;10300873;28;2118;-68
2023/06/21 20:10:49;;;;;;;;;;;;;;;25.25;51.31;96034.69;10284895;28;2181;-66
2023/06/21 20:15:52;;;;;;;;;;;;;;;25.23;51.40;96028.09;10303351;28;1899;-68
2023/06/21 20:20:52;;;;;;;;;;;;;;;25.20;51.44;96018.88;10301813;28;2019;-68
2023/06/21 20:25:53;;;;;;;;;;;;;;;25.19;51.73;96016.50;10302352;28;1902;-67
2023/06/21 20:30:53;;;;;;;;;;;;;;;25.17;51.89;96016.81;10303024;28;1914;-67
2023/06/21 20:35:53;;;;;;;;;;;;;;;25.15;51.94;96018.19;10291864;28;1929;-67
2023/06/21 20:40:59;;;;;;;;;;;;;;;25.15;51.89;96020.84;10292223;28;4472;-67
2023/06/21 20:45:59;;;;;;;;;;;;;;;25.11;52.12;96003.94;10302714;28;2425;-67
2023/06/21 20:50:59;;;;;;;;;;;;;;;25.08;52.07;95999.25;10302990;28;1918;-69
2023/06/21 20:56:02;;;;;;;;;;;;;;;25.07;51.90;95992.34;10294503;28;2022;-66
2023/06/21 21:01:03;;;;;;;;;;;;;;;25.01;52.06;95983.72;10304011;28;1882;-67
2023/06/21 21:06:04;;;;;;;;;;;;;;;24.98;51.85;95995.69;10303645;28;1902;-67
2023/06/21 21:11:12;;;;;;;;;;;;;;;24.92;51.84;95980.97;10297756;28;1888;-67
2023/06/21 21:16:12;;;;;;;;;;;;;;;24.91;51.82;95999.84;10309159;28;2144;-66
2023/06/21 21:21:13;;;;;;;;;;;;;;;24.90;52.07;95995.59;10310139;28;1813;-66
2023/06/21 21:26:13;;;;;;;;;;;;;;;24.86;51.87;95982.16;10309204;28;1656;-67
2023/06/21 21:31:14;;;;;;;;;;;;;;;24.82;51.81;95970.56;10299095;28;2541;-66
2023/06/21 21:36:14;;;;;;;;;;;;;;;24.81;51.99;95982.25;10305049;28;1894;-67
2023/06/21 21:41:14;;;;;;;;;;;;;;;24.79;51.98;95987.06;10300677;28;4451;-67
2023/06/21 21:46:15;;;;;;;;;;;;;;;24.78;51.94;95972.25;10283416;28;1968;-66
2023/06/21 21:51:15;;;;;;;;;;;;;;;24.76;51.89;95955.06;10299888;28;1926;-66
2023/06/21 21:56:15;;;;;;;;;;;;;;;24.71;52.20;95936.59;10301335;28;1866;-66
2023/06/21 22:01:15;;;;;;;;;;;;;;;24.68;52.26;95922.03;10288355;28;1882;-66
2023/06/21 22:06:16;;;;;;;;;;;;;;;24.65;52.51;95927.13;10303205;28;1895;-64
2023/06/21 22:11:16;;;;;;;;;;;;;;;24.64;52.65;95938.81;10292393;28;1934;-61
2023/06/21 22:16:17;;;;;;;;;;;;;;;24.61;52.45;95931.44;10289589;28;1978;-63
2023/06/21 22:21:19;;;;;;;;;;;;;;;24.59;52.44;95923.00;10302517;28;1852;-61
2023/06/21 22:26:19;;;;;;;;;;;;;;;24.56;52.43;95919.09;10298155;28;1907;-65
2023/06/21 22:31:19;;;;;;;;;;;;;;;24.54;52.53;95915.97;10300586;28;1958;-66
2023/06/21 22:36:20;;;;;;;;;;;;;;;24.51;52.48;95916.53;10297274;28;2404;-66
2023/06/21 22:41:20;;;;;;;;;;;;;;;24.48;52.47;95898.59;10299947;28;4563;-66
2023/06/21 22:46:20;;;;;;;;;;;;;;;24.44;52.43;95889.63;10298827;28;2086;-66
2023/06/21 22:51:21;;;;;;;;;;;;;;;24.42;52.29;95897.09;10307711;28;2002;-66
2023/06/21 22:56:21;;;;;;;;;;;;;;;24.38;52.53;95896.13;10291983;28;2081;-66
2023/06/21 23:01:21;;;;;;;;;;;;;;;24.37;52.50;95896.41;10292681;28;1888;-66
2023/06/21 23:06:24;;;;;;;;;;;;;;;24.33;52.55;95898.09;10300436;28;2112;-66
2023/06/21 23:11:25;;;;;;;;;;;;;;;24.24;52.71;95885.53;10300110;28;2117;-66
2023/06/21 23:16:25;;;;;;;;;;;;;;;24.23;52.83;95881.28;10301640;28;1957;-66
2023/06/21 23:21:26;;;;;;;;;;;;;;;24.20;53.05;95868.63;10308098;28;1854;-66
2023/06/21 23:26:26;;;;;;;;;;;;;;;24.16;53.07;95859.72;10310847;28;2122;-66
2023/06/21 23:31:33;;;;;;;;;;;;;;;24.15;52.96;95844.88;10303560;28;2563;-66
2023/06/21 23:36:33;;;;;;;;;;;;;;;24.10;52.75;95845.00;10303119;28;1886;-66
2023/06/21 23:41:36;;;;;;;;;;;;;;;24.08;53.06;95833.13;10296696;28;5396;-66
2023/06/21 23:46:37;;;;;;;;;;;;;;;24.07;52.99;95824.38;10302637;28;1995;-66
2023/06/21 23:51:37;;;;;;;;;;;;;;;24.01;52.96;95804.34;10305772;28;1947;-66
2023/06/21 23:56:37;;;;;;;;;;;;;;;23.96;53.00;95779.84;10305780;28;2070;-65
